Junior — D5BZ4 — position and weather

sailwx.info

Track history (hours):
 
Tides and Currents Weather Stations Pressure Air Temp Water Temp Dewpoint Dewpoint Depression Visibility Wind Speed Wind Dir Waves Ship Positions

Junior

Last reported at 2017-Oct-17 13:29 UTC. Time now 2017-Oct-17 20:17 UTC.
Position N 56°33' E 019°03'.

Length 229 m; draft 7.2 m.

Type: Ship. MMSI: 636015637.

Date/timePositionNaut miles runAvg speedWind from/ knotsBaromVisibWave heightAir tempDewpointWater temp
2017-Oct-17 13:29N 56°33' E 019°03'11513.1
2017-Oct-17 04:39N 55°41' E 015°58'213.8
2017-Oct-17 04:29N 55°41' E 015°53'713.6
2017-Oct-17 04:00N 55°39' E 015°42'1013.6
2017-Oct-17 03:15N 55°36' E 015°25'314.0
2017-Oct-17 03:00N 55°34' E 015°20'714.0
2017-Oct-17 02:30N 55°31' E 015°08'714.0
2017-Oct-17 02:00N 55°29' E 014°57'814.0
2017-Oct-17 01:26N 55°26' E 014°44'613.6
2017-Oct-17 01:00N 55°22' E 014°36'713.7
2017-Oct-17 00:30N 55°17' E 014°28'713.6
2017-Oct-16 23:59N 55°11' E 014°21'4313.4
2017-Oct-16 20:49N 55°13' E 013°07'613.9
2017-Oct-16 20:24N 55°14' E 012°56'614.1
2017-Oct-16 19:59N 55°16' E 012°47'612.3
2017-Oct-16 19:30N 55°19' E 012°38'713.7
2017-Oct-16 19:00N 55°26' E 012°40'611.5
2017-Oct-16 18:30N 55°31' E 012°44'5 9.1
2017-Oct-16 18:00N 55°34' E 012°49'510.1
2017-Oct-16 17:30N 55°38' E 012°55'612.9
2017-Oct-16 17:00N 55°44' E 012°51'714.1
2017-Oct-16 16:30N 55°50' E 012°45'714.0
2017-Oct-16 16:00N 55°57' E 012°42'714.5
2017-Oct-16 15:30N 56°04' E 012°37'8012.6
2017-Oct-16 09:10N 57°15' E 011°33'613.9
2017-Oct-16 08:45N 57°21' E 011°29'413.7
2017-Oct-16 08:29N 57°24' E 011°27'613.3
2017-Oct-16 08:00N 57°30' E 011°21'713.6
2017-Oct-16 07:30N 57°34' E 011°12'713.4
2017-Oct-16 07:01N 57°39' E 011°02'713.3
2017-Oct-16 06:30N 57°43' E 010°53'713.1
2017-Oct-16 06:00N 57°47' E 010°43'7413.4
2017-Oct-16 00:29N 57°31' E 008°28'714.4
2017-Oct-15 23:59N 57°27' E 008°17'29713.4
2017-Oct-15 01:51N 53°02' E 004°24'513.7
2017-Oct-15 01:30N 52°58' E 004°20'713.7
2017-Oct-15 01:00N 52°52' E 004°14'713.8
2017-Oct-15 00:30N 52°46' E 004°08'713.8
2017-Oct-15 00:01N 52°40' E 004°03'713.8
2017-Oct-14 23:30N 52°34' E 003°57'913.6
2017-Oct-14 22:52N 52°26' E 003°53'513.9
2017-Oct-14 22:29N 52°20' E 003°52'713.8
2017-Oct-14 22:00N 52°14' E 003°49'4 1.2
2017-Oct-14 18:30N 52°11' E 003°44'0 0.1
2017-Oct-14 17:27N 52°11' E 003°44'1 2.3
2017-Oct-14 17:00N 52°10' E 003°45'610.4
2017-Oct-14 16:26N 52°05' E 003°50'510.3
2017-Oct-14 16:00N 52°02' E 003°55'4 7.9
2017-Oct-14 15:31N 52°00' E 004°01'4 8.7
2017-Oct-14 15:00N 51°57' E 004°05'2 2.7
2017-Oct-14 14:26N 51°56' E 004°03'0 0.0
2017-Oct-14 13:53N 51°56' E 004°03'0 0.0
2017-Oct-14 13:26N 51°56' E 004°03'0 0.0
2017-Oct-14 12:59N 51°56' E 004°03'0 0.0
2017-Oct-14 12:29N 51°56' E 004°03'0 0.0
2017-Oct-14 11:59N 51°56' E 004°03'0 0.0
2017-Oct-14 11:26N 51°56' E 004°03'0 0.0
2017-Oct-14 10:50N 51°56' E 004°03'0 0.0
2017-Oct-14 10:26N 51°56' E 004°03'0 0.0
2017-Oct-14 09:56N 51°56' E 004°03'0 0.0
2017-Oct-14 09:26N 51°56' E 004°03'0 0.0
2017-Oct-14 08:50N 51°56' E 004°03'0 0.0
2017-Oct-14 08:26N 51°56' E 004°03'0 0.0
2017-Oct-14 07:56N 51°56' E 004°03'0 0.0
2017-Oct-14 07:26N 51°56' E 004°03'0 0.0
2017-Oct-14 06:59N 51°56' E 004°03'0 0.0
2017-Oct-14 06:29N 51°56' E 004°03'0 0.0
2017-Oct-14 05:59N 51°56' E 004°03'0 0.0
2017-Oct-14 05:29N 51°56' E 004°03'0 0.0
2017-Oct-14 04:59N 51°56' E 004°03'0 0.0
2017-Oct-14 04:29N 51°56' E 004°03'0 0.0
2017-Oct-14 03:59N 51°56' E 004°03'0 0.0
2017-Oct-14 03:26N 51°56' E 004°03'0 0.0
2017-Oct-14 02:50N 51°56' E 004°03'0 0.0
2017-Oct-14 02:29N 51°56' E 004°03'0 0.0
2017-Oct-14 01:56N 51°56' E 004°03'0 0.0
2017-Oct-14 01:29N 51°56' E 004°03'0 0.0
2017-Oct-14 00:59N 51°56' E 004°03'0 0.0
2017-Oct-14 00:29N 51°56' E 004°03'0 0.0
2017-Oct-13 23:56N 51°56' E 004°03'0 0.0
2017-Oct-13 23:29N 51°56' E 004°03'0 0.0
2017-Oct-13 22:59N 51°56' E 004°03'0 0.0
2017-Oct-13 22:29N 51°56' E 004°03'0 0.0
2017-Oct-13 21:56N 51°56' E 004°03'0 0.0
2017-Oct-13 21:26N 51°56' E 004°03'0 0.0
2017-Oct-13 20:47N 51°56' E 004°03'0 0.0
2017-Oct-13 20:23N 51°56' E 004°03'0 0.0
2017-Oct-13 19:59N 51°56' E 004°03'0 0.0
2017-Oct-13 19:29N 51°56' E 004°03'0 0.0
2017-Oct-13 18:53N 51°56' E 004°03'0 0.0
2017-Oct-13 18:29N 51°56' E 004°03'0 0.0
2017-Oct-13 17:59N 51°56' E 004°03'0 0.0
2017-Oct-13 17:29N 51°56' E 004°03'0 0.0
2017-Oct-13 16:59N 51°56' E 004°03'0 0.0
2017-Oct-13 16:23N 51°56' E 004°03'0 0.0
2017-Oct-13 15:59N 51°56' E 004°03'0 0.0
2017-Oct-13 15:20N 51°56' E 004°03'0 0.0
2017-Oct-13 14:59N 51°56' E 004°03'0 0.0
2017-Oct-13 14:29N 51°56' E 004°03'0 0.0
2017-Oct-13 13:53N 51°56' E 004°03'0 0.0
2017-Oct-13 13:29N 51°56' E 004°03'0 0.0
2017-Oct-13 12:53N 51°56' E 004°03'0 0.0
2017-Oct-13 12:29N 51°56' E 004°03'0 0.0
2017-Oct-13 11:56N 51°56' E 004°03'0 0.0
2017-Oct-13 11:26N 51°56' E 004°03'0 0.0
2017-Oct-13 10:50N 51°56' E 004°03'0 0.0
2017-Oct-13 10:29N 51°56' E 004°03'0 0.0
2017-Oct-13 09:56N 51°56' E 004°03'0 0.0
2017-Oct-13 09:26N 51°56' E 004°03'0 0.0
2017-Oct-13 08:59N 51°56' E 004°03'0 0.0
2017-Oct-13 08:20N 51°56' E 004°03'0 0.0
2017-Oct-13 07:56N 51°56' E 004°03'0 0.0
2017-Oct-13 07:23N 51°56' E 004°03'0 0.0
2017-Oct-13 06:59N 51°56' E 004°03'0 0.0
2017-Oct-13 06:26N 51°56' E 004°03'0 0.0
2017-Oct-13 05:47N 51°56' E 004°03'0 0.0
2017-Oct-13 05:29N 51°56' E 004°03'0 0.0
2017-Oct-13 04:59N 51°56' E 004°03'0 0.0
2017-Oct-13 04:29N 51°56' E 004°03'0 0.0
2017-Oct-13 03:56N 51°56' E 004°03'0 0.0
2017-Oct-13 03:29N 51°56' E 004°03'0 0.0
2017-Oct-13 02:59N 51°56' E 004°03'0 0.0
2017-Oct-13 02:29N 51°56' E 004°03'0 0.0
2017-Oct-13 01:59N 51°56' E 004°03'0 0.0
2017-Oct-13 01:29N 51°56' E 004°03'0 0.0
2017-Oct-13 00:59N 51°56' E 004°03'0 0.0
2017-Oct-13 00:26N 51°56' E 004°03'0 0.0
2017-Oct-12 23:59N 51°56' E 004°03'0 0.0
2017-Oct-12 23:26N 51°56' E 004°03'0 0.0
2017-Oct-12 22:59N 51°56' E 004°03'0 0.0
2017-Oct-12 22:26N 51°56' E 004°03'0 0.0
2017-Oct-12 21:53N 51°56' E 004°03'0 0.0
2017-Oct-12 21:23N 51°56' E 004°03'0 0.0
2017-Oct-12 20:59N 51°56' E 004°03'0 0.0
2017-Oct-12 20:26N 51°56' E 004°03'0 0.0
2017-Oct-12 19:59N 51°56' E 004°03'0 0.0
2017-Oct-12 19:29N 51°56' E 004°03'0 0.0
2017-Oct-12 18:53N 51°56' E 004°03'0 0.0
2017-Oct-12 18:29N 51°56' E 004°03'0 0.0
2017-Oct-12 17:56N 51°56' E 004°03'0 0.0
2017-Oct-12 17:29N 51°56' E 004°03'0 0.0
2017-Oct-12 16:47N 51°56' E 004°03'0 0.0
2017-Oct-12 16:29N 51°56' E 004°03'0 0.0
2017-Oct-12 15:53N 51°56' E 004°03'0 0.0
2017-Oct-12 15:29N 51°56' E 004°03'0 0.0
2017-Oct-12 14:59N 51°56' E 004°03'0 0.0
2017-Oct-12 14:17N 51°56' E 004°03'0 0.0
2017-Oct-12 13:56N 51°56' E 004°03'0 0.0
2017-Oct-12 13:29N 51°56' E 004°03'0 0.0
2017-Oct-12 12:59N 51°56' E 004°03'0 0.0
2017-Oct-12 12:23N 51°56' E 004°03'0 0.0
2017-Oct-12 11:50N 51°56' E 004°03'0 0.0
2017-Oct-12 11:26N 51°56' E 004°03'0 0.0
2017-Oct-12 10:50N 51°56' E 004°03'0 0.0
2017-Oct-12 10:29N 51°56' E 004°03'0 0.0
2017-Oct-12 09:59N 51°56' E 004°03'0 0.0
2017-Oct-12 09:29N 51°56' E 004°03'0 0.0
2017-Oct-12 08:50N 51°56' E 004°03'0 0.0
2017-Oct-12 08:26N 51°56' E 004°03'0 0.0
2017-Oct-12 07:59N 51°56' E 004°03'0 0.0
2017-Oct-12 07:29N 51°56' E 004°03'0 0.0
2017-Oct-12 06:59N 51°56' E 004°03'0 0.0
2017-Oct-12 06:29N 51°56' E 004°03'0 0.0
2017-Oct-12 05:59N 51°56' E 004°03'0 0.0
2017-Oct-12 05:29N 51°56' E 004°03'0 0.0
2017-Oct-12 04:56N 51°56' E 004°03'0 0.0
2017-Oct-12 04:29N 51°56' E 004°03'0 0.0
2017-Oct-12 03:56N 51°56' E 004°03'0 0.0
2017-Oct-12 03:29N 51°56' E 004°03'0 0.0
2017-Oct-12 02:50N 51°56' E 004°03'0 0.0
2017-Oct-12 02:29N 51°56' E 004°03'0 0.0
2017-Oct-12 01:56N 51°56' E 004°03'0 0.0
2017-Oct-12 01:29N 51°56' E 004°03'0 0.0
2017-Oct-12 00:59N 51°56' E 004°03'0 0.0
2017-Oct-12 00:29N 51°56' E 004°03'0 0.0
2017-Oct-11 23:56N 51°56' E 004°03'0 0.0
2017-Oct-11 23:11N 51°56' E 004°03'0 0.0
2017-Oct-11 22:56N 51°56' E 004°03'0 0.0
2017-Oct-11 22:29N 51°56' E 004°03'0 0.0
2017-Oct-11 21:59N 51°56' E 004°03'0 0.0
2017-Oct-11 21:29N 51°56' E 004°03'0 0.0
2017-Oct-11 20:53N 51°56' E 004°03'0 0.0
2017-Oct-11 20:29N 51°56' E 004°03'0 0.0
2017-Oct-11 19:59N 51°56' E 004°03'0 0.0
2017-Oct-11 19:29N 51°56' E 004°03'0 0.0
2017-Oct-11 18:59N 51°56' E 004°03'0 0.0
2017-Oct-11 18:14N 51°56' E 004°03'0 0.0
2017-Oct-11 17:59N 51°56' E 004°03'0 0.0
2017-Oct-11 17:29N 51°56' E 004°03'0 0.0
2017-Oct-11 16:53N 51°56' E 004°03'33 1.3
2017-Oct-10 15:53N 51°57' E 003°09'0 0.1
2017-Oct-10 15:29N 51°56' E 003°09'0 0.1
2017-Oct-10 14:59N 51°56' E 003°09'0 0.0
2017-Oct-10 01:53N 51°56' E 003°09'0 0.2
2017-Oct-10 01:26N 51°56' E 003°09'0 0.1
2017-Oct-10 00:53N 51°56' E 003°09'0 0.0
2017-Oct-10 00:29N 51°56' E 003°09'  
Track history (hours):
 
Tides and Currents Weather Stations Pressure Air Temp Water Temp Dewpoint Dewpoint Depression Visibility Wind Speed Wind Dir Waves Ship Positions

Junior

Last reported at 2017-Oct-17 13:29 UTC. Time now 2017-Oct-17 20:17 UTC.
Position N 56°33' E 019°03'.

Length 229 m; draft 7.2 m.

Type: Ship. MMSI: 636015637.

Date/timePositionNaut miles runAvg speedWind from/ knotsBaromVisibWave heightAir tempDewpointWater temp
2017-Oct-17 13:29N 56°33' E 019°03'11513.1
2017-Oct-17 04:39N 55°41' E 015°58'213.8
2017-Oct-17 04:29N 55°41' E 015°53'713.6
2017-Oct-17 04:00N 55°39' E 015°42'1013.6
2017-Oct-17 03:15N 55°36' E 015°25'314.0
2017-Oct-17 03:00N 55°34' E 015°20'714.0
2017-Oct-17 02:30N 55°31' E 015°08'714.0
2017-Oct-17 02:00N 55°29' E 014°57'814.0
2017-Oct-17 01:26N 55°26' E 014°44'613.6
2017-Oct-17 01:00N 55°22' E 014°36'713.7
2017-Oct-17 00:30N 55°17' E 014°28'713.6
2017-Oct-16 23:59N 55°11' E 014°21'4313.4
2017-Oct-16 20:49N 55°13' E 013°07'613.9
2017-Oct-16 20:24N 55°14' E 012°56'614.1
2017-Oct-16 19:59N 55°16' E 012°47'612.3
2017-Oct-16 19:30N 55°19' E 012°38'713.7
2017-Oct-16 19:00N 55°26' E 012°40'611.5
2017-Oct-16 18:30N 55°31' E 012°44'5 9.1
2017-Oct-16 18:00N 55°34' E 012°49'510.1
2017-Oct-16 17:30N 55°38' E 012°55'612.9
2017-Oct-16 17:00N 55°44' E 012°51'714.1
2017-Oct-16 16:30N 55°50' E 012°45'714.0
2017-Oct-16 16:00N 55°57' E 012°42'714.5
2017-Oct-16 15:30N 56°04' E 012°37'8012.6
2017-Oct-16 09:10N 57°15' E 011°33'613.9
2017-Oct-16 08:45N 57°21' E 011°29'413.7
2017-Oct-16 08:29N 57°24' E 011°27'613.3
2017-Oct-16 08:00N 57°30' E 011°21'713.6
2017-Oct-16 07:30N 57°34' E 011°12'713.4
2017-Oct-16 07:01N 57°39' E 011°02'713.3
2017-Oct-16 06:30N 57°43' E 010°53'713.1
2017-Oct-16 06:00N 57°47' E 010°43'7413.4
2017-Oct-16 00:29N 57°31' E 008°28'714.4
2017-Oct-15 23:59N 57°27' E 008°17'29713.4
2017-Oct-15 01:51N 53°02' E 004°24'513.7
2017-Oct-15 01:30N 52°58' E 004°20'713.7
2017-Oct-15 01:00N 52°52' E 004°14'713.8
2017-Oct-15 00:30N 52°46' E 004°08'713.8
2017-Oct-15 00:01N 52°40' E 004°03'713.8
2017-Oct-14 23:30N 52°34' E 003°57'913.6
2017-Oct-14 22:52N 52°26' E 003°53'513.9
2017-Oct-14 22:29N 52°20' E 003°52'713.8
2017-Oct-14 22:00N 52°14' E 003°49'4 1.2
2017-Oct-14 18:30N 52°11' E 003°44'0 0.1
2017-Oct-14 17:27N 52°11' E 003°44'1 2.3
2017-Oct-14 17:00N 52°10' E 003°45'610.4
2017-Oct-14 16:26N 52°05' E 003°50'510.3
2017-Oct-14 16:00N 52°02' E 003°55'4 7.9
2017-Oct-14 15:31N 52°00' E 004°01'4 8.7
2017-Oct-14 15:00N 51°57' E 004°05'2 2.7
2017-Oct-14 14:26N 51°56' E 004°03'0 0.0
2017-Oct-14 13:53N 51°56' E 004°03'0 0.0
2017-Oct-14 13:26N 51°56' E 004°03'0 0.0
2017-Oct-14 12:59N 51°56' E 004°03'0 0.0
2017-Oct-14 12:29N 51°56' E 004°03'0 0.0
2017-Oct-14 11:59N 51°56' E 004°03'0 0.0
2017-Oct-14 11:26N 51°56' E 004°03'0 0.0
2017-Oct-14 10:50N 51°56' E 004°03'0 0.0
2017-Oct-14 10:26N 51°56' E 004°03'0 0.0
2017-Oct-14 09:56N 51°56' E 004°03'0 0.0
2017-Oct-14 09:26N 51°56' E 004°03'0 0.0
2017-Oct-14 08:50N 51°56' E 004°03'0 0.0
2017-Oct-14 08:26N 51°56' E 004°03'0 0.0
2017-Oct-14 07:56N 51°56' E 004°03'0 0.0
2017-Oct-14 07:26N 51°56' E 004°03'0 0.0
2017-Oct-14 06:59N 51°56' E 004°03'0 0.0
2017-Oct-14 06:29N 51°56' E 004°03'0 0.0
2017-Oct-14 05:59N 51°56' E 004°03'0 0.0
2017-Oct-14 05:29N 51°56' E 004°03'0 0.0
2017-Oct-14 04:59N 51°56' E 004°03'0 0.0
2017-Oct-14 04:29N 51°56' E 004°03'0 0.0
2017-Oct-14 03:59N 51°56' E 004°03'0 0.0
2017-Oct-14 03:26N 51°56' E 004°03'0 0.0
2017-Oct-14 02:50N 51°56' E 004°03'0 0.0
2017-Oct-14 02:29N 51°56' E 004°03'0 0.0
2017-Oct-14 01:56N 51°56' E 004°03'0 0.0
2017-Oct-14 01:29N 51°56' E 004°03'0 0.0
2017-Oct-14 00:59N 51°56' E 004°03'0 0.0
2017-Oct-14 00:29N 51°56' E 004°03'0 0.0
2017-Oct-13 23:56N 51°56' E 004°03'0 0.0
2017-Oct-13 23:29N 51°56' E 004°03'0 0.0
2017-Oct-13 22:59N 51°56' E 004°03'0 0.0
2017-Oct-13 22:29N 51°56' E 004°03'0 0.0
2017-Oct-13 21:56N 51°56' E 004°03'0 0.0
2017-Oct-13 21:26N 51°56' E 004°03'0 0.0
2017-Oct-13 20:47N 51°56' E 004°03'0 0.0
2017-Oct-13 20:23N 51°56' E 004°03'0 0.0
2017-Oct-13 19:59N 51°56' E 004°03'0 0.0
2017-Oct-13 19:29N 51°56' E 004°03'0 0.0
2017-Oct-13 18:53N 51°56' E 004°03'0 0.0
2017-Oct-13 18:29N 51°56' E 004°03'0 0.0
2017-Oct-13 17:59N 51°56' E 004°03'0 0.0
2017-Oct-13 17:29N 51°56' E 004°03'0 0.0
2017-Oct-13 16:59N 51°56' E 004°03'0 0.0
2017-Oct-13 16:23N 51°56' E 004°03'0 0.0
2017-Oct-13 15:59N 51°56' E 004°03'0 0.0
2017-Oct-13 15:20N 51°56' E 004°03'0 0.0
2017-Oct-13 14:59N 51°56' E 004°03'0 0.0
2017-Oct-13 14:29N 51°56' E 004°03'0 0.0
2017-Oct-13 13:53N 51°56' E 004°03'0 0.0
2017-Oct-13 13:29N 51°56' E 004°03'0 0.0
2017-Oct-13 12:53N 51°56' E 004°03'0 0.0
2017-Oct-13 12:29N 51°56' E 004°03'0 0.0
2017-Oct-13 11:56N 51°56' E 004°03'0 0.0
2017-Oct-13 11:26N 51°56' E 004°03'0 0.0
2017-Oct-13 10:50N 51°56' E 004°03'0 0.0
2017-Oct-13 10:29N 51°56' E 004°03'0 0.0
2017-Oct-13 09:56N 51°56' E 004°03'0 0.0
2017-Oct-13 09:26N 51°56' E 004°03'0 0.0
2017-Oct-13 08:59N 51°56' E 004°03'0 0.0
2017-Oct-13 08:20N 51°56' E 004°03'0 0.0
2017-Oct-13 07:56N 51°56' E 004°03'0 0.0
2017-Oct-13 07:23N 51°56' E 004°03'0 0.0
2017-Oct-13 06:59N 51°56' E 004°03'0 0.0
2017-Oct-13 06:26N 51°56' E 004°03'0 0.0
2017-Oct-13 05:47N 51°56' E 004°03'0 0.0
2017-Oct-13 05:29N 51°56' E 004°03'0 0.0
2017-Oct-13 04:59N 51°56' E 004°03'0 0.0
2017-Oct-13 04:29N 51°56' E 004°03'0 0.0
2017-Oct-13 03:56N 51°56' E 004°03'0 0.0
2017-Oct-13 03:29N 51°56' E 004°03'0 0.0
2017-Oct-13 02:59N 51°56' E 004°03'0 0.0
2017-Oct-13 02:29N 51°56' E 004°03'0 0.0
2017-Oct-13 01:59N 51°56' E 004°03'0 0.0
2017-Oct-13 01:29N 51°56' E 004°03'0 0.0
2017-Oct-13 00:59N 51°56' E 004°03'0 0.0
2017-Oct-13 00:26N 51°56' E 004°03'0 0.0
2017-Oct-12 23:59N 51°56' E 004°03'0 0.0
2017-Oct-12 23:26N 51°56' E 004°03'0 0.0
2017-Oct-12 22:59N 51°56' E 004°03'0 0.0
2017-Oct-12 22:26N 51°56' E 004°03'0 0.0
2017-Oct-12 21:53N 51°56' E 004°03'0 0.0
2017-Oct-12 21:23N 51°56' E 004°03'0 0.0
2017-Oct-12 20:59N 51°56' E 004°03'0 0.0
2017-Oct-12 20:26N 51°56' E 004°03'0 0.0
2017-Oct-12 19:59N 51°56' E 004°03'0 0.0
2017-Oct-12 19:29N 51°56' E 004°03'0 0.0
2017-Oct-12 18:53N 51°56' E 004°03'0 0.0
2017-Oct-12 18:29N 51°56' E 004°03'0 0.0
2017-Oct-12 17:56N 51°56' E 004°03'0 0.0
2017-Oct-12 17:29N 51°56' E 004°03'0 0.0
2017-Oct-12 16:47N 51°56' E 004°03'0 0.0
2017-Oct-12 16:29N 51°56' E 004°03'0 0.0
2017-Oct-12 15:53N 51°56' E 004°03'0 0.0
2017-Oct-12 15:29N 51°56' E 004°03'0 0.0
2017-Oct-12 14:59N 51°56' E 004°03'0 0.0
2017-Oct-12 14:17N 51°56' E 004°03'0 0.0
2017-Oct-12 13:56N 51°56' E 004°03'0 0.0
2017-Oct-12 13:29N 51°56' E 004°03'0 0.0
2017-Oct-12 12:59N 51°56' E 004°03'0 0.0
2017-Oct-12 12:23N 51°56' E 004°03'0 0.0
2017-Oct-12 11:50N 51°56' E 004°03'0 0.0
2017-Oct-12 11:26N 51°56' E 004°03'0 0.0
2017-Oct-12 10:50N 51°56' E 004°03'0 0.0
2017-Oct-12 10:29N 51°56' E 004°03'0 0.0
2017-Oct-12 09:59N 51°56' E 004°03'0 0.0
2017-Oct-12 09:29N 51°56' E 004°03'0 0.0
2017-Oct-12 08:50N 51°56' E 004°03'0 0.0
2017-Oct-12 08:26N 51°56' E 004°03'0 0.0
2017-Oct-12 07:59N 51°56' E 004°03'0 0.0
2017-Oct-12 07:29N 51°56' E 004°03'0 0.0
2017-Oct-12 06:59N 51°56' E 004°03'0 0.0
2017-Oct-12 06:29N 51°56' E 004°03'0 0.0
2017-Oct-12 05:59N 51°56' E 004°03'0 0.0
2017-Oct-12 05:29N 51°56' E 004°03'0 0.0
2017-Oct-12 04:56N 51°56' E 004°03'0 0.0
2017-Oct-12 04:29N 51°56' E 004°03'0 0.0
2017-Oct-12 03:56N 51°56' E 004°03'0 0.0
2017-Oct-12 03:29N 51°56' E 004°03'0 0.0
2017-Oct-12 02:50N 51°56' E 004°03'0 0.0
2017-Oct-12 02:29N 51°56' E 004°03'0 0.0
2017-Oct-12 01:56N 51°56' E 004°03'0 0.0
2017-Oct-12 01:29N 51°56' E 004°03'0 0.0
2017-Oct-12 00:59N 51°56' E 004°03'0 0.0
2017-Oct-12 00:29N 51°56' E 004°03'0 0.0
2017-Oct-11 23:56N 51°56' E 004°03'0 0.0
2017-Oct-11 23:11N 51°56' E 004°03'0 0.0
2017-Oct-11 22:56N 51°56' E 004°03'0 0.0
2017-Oct-11 22:29N 51°56' E 004°03'0 0.0
2017-Oct-11 21:59N 51°56' E 004°03'0 0.0
2017-Oct-11 21:29N 51°56' E 004°03'0 0.0
2017-Oct-11 20:53N 51°56' E 004°03'0 0.0
2017-Oct-11 20:29N 51°56' E 004°03'0 0.0
2017-Oct-11 19:59N 51°56' E 004°03'0 0.0
2017-Oct-11 19:29N 51°56' E 004°03'0 0.0
2017-Oct-11 18:59N 51°56' E 004°03'0 0.0
2017-Oct-11 18:14N 51°56' E 004°03'0 0.0
2017-Oct-11 17:59N 51°56' E 004°03'0 0.0
2017-Oct-11 17:29N 51°56' E 004°03'0 0.0
2017-Oct-11 16:53N 51°56' E 004°03'33 1.3
2017-Oct-10 15:53N 51°57' E 003°09'0 0.1
2017-Oct-10 15:29N 51°56' E 003°09'0 0.1
2017-Oct-10 14:59N 51°56' E 003°09'0 0.0
2017-Oct-10 01:53N 51°56' E 003°09'0 0.2
2017-Oct-10 01:26N 51°56' E 003°09'0 0.1
2017-Oct-10 00:53N 51°56' E 003°09'0 0.0
2017-Oct-10 00:29N 51°56' E 003°09'  

Dump ship's entire track history